createdAt,value
2023-03-15T00:01:18.750Z,1.00
2023-03-15T00:03:46.781Z,2.67
2023-03-15T00:06:14.878Z,1.42
2023-03-15T00:08:42.048Z,1.50
2023-03-15T00:11:09.232Z,1.65
2023-03-15T00:13:36.483Z,1.15
2023-03-15T00:16:04.112Z,1.48
2023-03-15T00:18:31.904Z,1.95
2023-03-15T00:20:59.184Z,1.30
2023-03-15T00:23:26.578Z,1.27
2023-03-15T00:25:54.604Z,1.58
2023-03-15T00:28:22.127Z,1.77
2023-03-15T00:30:50.399Z,1.52
2023-03-15T00:33:17.659Z,1.23
2023-03-15T00:35:45.897Z,1.30
2023-03-15T00:38:14.384Z,1.55
2023-03-15T00:40:42.576Z,1.60
2023-03-15T00:43:09.679Z,1.63
2023-03-15T00:45:37.018Z,1.60
2023-03-15T00:48:04.612Z,1.75
2023-03-15T00:50:31.757Z,1.85
2023-03-15T00:52:59.046Z,1.40
2023-03-15T00:55:28.617Z,1.88
2023-03-15T00:57:56.876Z,2.00
2023-03-15T01:00:25.099Z,2.13
2023-03-15T01:02:53.743Z,1.52
2023-03-15T01:05:22.100Z,1.48
2023-03-15T01:07:49.687Z,1.52
2023-03-15T01:10:18.009Z,1.63
2023-03-15T01:12:46.211Z,1.63
2023-03-15T01:15:15.391Z,1.70
2023-03-15T01:17:43.068Z,1.20
2023-03-15T01:20:13.244Z,1.48
2023-03-15T01:22:40.774Z,1.33
2023-03-15T01:25:09.336Z,1.85
2023-03-15T01:27:37.257Z,1.77
2023-03-15T01:30:05.481Z,1.70
2023-03-15T01:32:33.660Z,1.35
2023-03-15T01:35:02.078Z,1.60
2023-03-15T01:37:29.425Z,1.73
2023-03-15T01:39:56.612Z,1.70
2023-03-15T01:42:23.944Z,1.35
2023-03-15T01:44:54.894Z,1.60
2023-03-15T01:47:26.009Z,1.20
2023-03-15T01:50:09.120Z,1.70
2023-03-15T01:52:39.389Z,1.65
2023-03-15T01:55:14.218Z,1.20
2023-03-15T01:58:14.312Z,1.33
2023-03-15T02:00:43.906Z,1.20
2023-03-15T02:03:26.485Z,1.70
2023-03-15T02:05:59.156Z,1.55
2023-03-15T02:08:43.726Z,1.23
2023-03-15T02:11:12.112Z,1.25
2023-03-15T02:13:42.128Z,1.20
2023-03-15T02:16:09.964Z,1.45
2023-03-15T02:18:43.899Z,1.40
2023-03-15T02:21:26.036Z,1.55
2023-03-15T02:24:19.903Z,2.13
2023-03-15T02:26:57.563Z,1.42
2023-03-15T02:29:28.755Z,1.33
2023-03-15T02:31:57.774Z,1.30
2023-03-15T02:34:25.989Z,1.38
2023-03-15T02:36:54.260Z,1.02
2023-03-15T02:39:23.506Z,1.17
2023-03-15T02:41:58.633Z,1.58
2023-03-15T02:44:31.080Z,1.25
2023-03-15T02:47:21.086Z,1.20
2023-03-15T02:49:52.337Z,1.67
2023-03-15T02:52:20.226Z,1.30
2023-03-15T02:54:47.471Z,1.52
2023-03-15T02:57:16.784Z,1.70
2023-03-15T02:59:45.616Z,1.85
2023-03-15T03:02:13.596Z,1.40
2023-03-15T03:04:43.111Z,1.15
2023-03-15T03:07:10.519Z,1.73
2023-03-15T03:09:48.211Z,1.77
2023-03-15T03:12:16.876Z,1.38
2023-03-15T03:14:44.092Z,1.15
2023-03-15T03:17:15.881Z,1.50
2023-03-15T03:19:43.655Z,1.23
2023-03-15T03:22:13.433Z,1.20
2023-03-15T03:24:45.979Z,1.42
2023-03-15T03:27:15.150Z,1.17
2023-03-15T03:29:44.856Z,1.63
2023-03-15T03:32:12.561Z,1.52
2023-03-15T03:34:39.863Z,1.55
2023-03-15T03:37:07.944Z,2.95
2023-03-15T03:39:52.161Z,1.52
2023-03-15T03:42:19.371Z,1.77
2023-03-15T03:44:46.589Z,1.67
2023-03-15T03:47:13.828Z,1.23
2023-03-15T03:49:41.069Z,1.77
2023-03-15T03:52:08.612Z,2.00
2023-03-15T03:54:36.378Z,1.83
2023-03-15T03:57:03.802Z,2.40
2023-03-15T03:59:33.912Z,1.70
2023-03-15T04:02:05.940Z,1.75
2023-03-15T04:04:34.278Z,1.67
2023-03-15T04:07:02.266Z,1.77
2023-03-15T04:09:37.486Z,1.35
2023-03-15T04:12:06.504Z,2.10
2023-03-15T04:14:34.917Z,1.42
2023-03-15T04:17:04.584Z,1.98
2023-03-15T04:19:33.630Z,2.30
2023-03-15T04:22:06.870Z,2.85
2023-03-15T04:25:01.928Z,2.42
2023-03-15T04:27:58.799Z,2.90
2023-03-15T04:30:51.569Z,2.97
2023-03-15T04:33:41.202Z,3.65
2023-03-15T04:36:19.107Z,2.42
2023-03-15T04:39:05.644Z,2.38
2023-03-15T04:41:56.240Z,2.17
2023-03-15T04:44:45.075Z,2.90
2023-03-15T04:47:31.226Z,2.05
2023-03-15T04:50:25.587Z,2.40
2023-03-15T04:53:07.869Z,2.08
2023-03-15T04:56:07.467Z,2.20
2023-03-15T04:58:42.587Z,1.90
2023-03-15T05:01:30.852Z,2.28
2023-03-15T05:04:24.130Z,2.10
2023-03-15T05:07:05.318Z,1.83
2023-03-15T05:09:39.841Z,2.42
2023-03-15T05:12:15.929Z,2.10
2023-03-15T05:15:01.489Z,2.42
2023-03-15T05:17:55.972Z,2.00
2023-03-15T05:20:41.926Z,2.08
2023-03-15T05:23:19.857Z,3.25
2023-03-15T05:26:15.992Z,3.05
2023-03-15T05:28:52.484Z,2.30
2023-03-15T05:31:20.017Z,3.17
2023-03-15T05:34:12.267Z,1.80
2023-03-15T05:37:08.988Z,2.67
2023-03-15T05:39:56.669Z,2.58
2023-03-15T05:42:45.795Z,2.53
2023-03-15T05:45:27.278Z,2.88
2023-03-15T05:47:54.390Z,2.72
2023-03-15T05:50:40.282Z,2.65
2023-03-15T05:53:25.670Z,2.25
2023-03-15T05:56:11.099Z,2.95
2023-03-15T05:58:41.098Z,2.60
2023-03-15T06:01:37.104Z,2.28
2023-03-15T06:04:17.897Z,2.65
2023-03-15T06:06:45.647Z,2.40
2023-03-15T06:09:13.352Z,2.80
2023-03-15T06:11:40.827Z,3.42
2023-03-15T06:14:11.895Z,2.67
2023-03-15T06:16:47.964Z,2.92
2023-03-15T06:19:15.163Z,2.95
2023-03-15T06:21:42.394Z,3.03
2023-03-15T06:24:15.298Z,2.55
2023-03-15T06:26:43.039Z,4.25
2023-03-15T06:29:10.185Z,3.55
2023-03-15T06:31:37.671Z,3.22
2023-03-15T06:34:08.780Z,4.72
2023-03-15T06:36:37.040Z,3.55
2023-03-15T06:39:05.756Z,3.78
2023-03-15T06:41:33.166Z,4.57
2023-03-15T06:44:07.937Z,3.88
2023-03-15T06:46:36.065Z,3.80
2023-03-15T06:49:03.508Z,3.90
2023-03-15T06:51:30.932Z,3.92
2023-03-15T06:53:58.225Z,5.10
2023-03-15T06:56:25.494Z,4.60
2023-03-15T06:58:52.598Z,4.47
2023-03-15T07:01:19.825Z,4.72
2023-03-15T07:03:47.035Z,4.93
2023-03-15T07:06:14.213Z,4.78
2023-03-15T07:08:41.366Z,3.88
2023-03-15T07:11:08.569Z,4.68
2023-03-15T07:13:35.751Z,4.13
2023-03-15T07:16:03.008Z,4.53
2023-03-15T07:18:30.222Z,4.60
2023-03-15T07:21:03.106Z,4.32
2023-03-15T07:23:31.025Z,5.28
2023-03-15T07:25:58.351Z,5.10
2023-03-15T07:28:26.921Z,5.38
2023-03-15T07:30:59.419Z,5.55
2023-03-15T07:33:27.607Z,4.95
2023-03-15T07:35:55.722Z,4.97
2023-03-15T07:38:25.199Z,5.47
2023-03-15T07:40:52.735Z,4.70
2023-03-15T07:43:20.080Z,6.22
2023-03-15T07:45:51.034Z,6.15
2023-03-15T07:48:18.497Z,5.68
2023-03-15T07:50:46.326Z,5.70
2023-03-15T07:53:13.586Z,4.90
2023-03-15T07:55:40.808Z,5.15
2023-03-15T07:58:07.933Z,5.55
2023-03-15T08:00:35.139Z,5.50
2023-03-15T08:03:02.449Z,4.78
2023-03-15T08:05:29.625Z,5.65
2023-03-15T08:07:56.939Z,4.45
2023-03-15T08:10:24.356Z,4.93
2023-03-15T08:12:52.012Z,5.18
2023-03-15T08:15:20.388Z,5.45
2023-03-15T08:17:48.684Z,5.38
2023-03-15T08:20:19.671Z,4.47
2023-03-15T08:22:48.776Z,4.53
2023-03-15T08:25:19.310Z,4.97
2023-03-15T08:27:47.038Z,5.07
2023-03-15T08:30:15.556Z,4.93
2023-03-15T08:32:44.955Z,3.65
2023-03-15T08:35:15.658Z,3.55
2023-03-15T08:37:47.789Z,3.63
2023-03-15T08:40:26.200Z,3.50
2023-03-15T08:42:54.128Z,3.05
2023-03-15T08:45:24.009Z,2.83
2023-03-15T08:48:01.382Z,2.78
2023-03-15T08:50:31.757Z,2.97
2023-03-15T08:52:58.950Z,3.75
2023-03-15T08:55:26.152Z,2.95
2023-03-15T08:57:53.313Z,3.22
2023-03-15T09:00:23.095Z,2.20
2023-03-15T09:02:54.018Z,2.85
2023-03-15T09:05:23.442Z,2.70
2023-03-15T09:07:53.102Z,2.80
2023-03-15T09:10:20.747Z,2.63
2023-03-15T09:12:50.939Z,2.20
2023-03-15T09:15:19.300Z,2.30
2023-03-15T09:17:46.610Z,1.80
2023-03-15T09:20:19.202Z,1.85
2023-03-15T09:22:55.361Z,1.67
2023-03-15T09:25:24.246Z,1.88
2023-03-15T09:27:51.504Z,2.00
2023-03-15T09:30:19.135Z,1.58
2023-03-15T09:32:46.510Z,1.70
2023-03-15T09:35:17.469Z,2.10
2023-03-15T09:37:44.956Z,1.60
2023-03-15T09:40:20.227Z,1.70
2023-03-15T09:43:02.866Z,1.50
2023-03-15T09:45:59.829Z,1.50
2023-03-15T09:48:27.328Z,1.60
2023-03-15T09:51:01.065Z,1.30
2023-03-15T09:53:28.344Z,1.13
2023-03-15T09:55:55.639Z,1.60
2023-03-15T09:58:32.865Z,1.60
2023-03-15T10:01:07.014Z,2.97
2023-03-15T10:03:46.255Z,2.50
2023-03-15T10:06:24.409Z,2.40
2023-03-15T10:08:57.257Z,2.40
2023-03-15T10:11:53.638Z,2.13
2023-03-15T10:14:27.267Z,1.38
2023-03-15T10:16:54.477Z,1.60
2023-03-15T10:19:44.773Z,1.23
2023-03-15T10:22:29.816Z,1.20
2023-03-15T10:25:18.695Z,1.38
2023-03-15T10:28:10.733Z,2.42
2023-03-15T10:30:39.998Z,1.75
2023-03-15T10:33:32.129Z,1.80
2023-03-15T10:36:10.660Z,0.90
2023-03-15T10:38:42.018Z,1.00
2023-03-15T10:41:15.290Z,0.90
2023-03-15T10:44:01.085Z,0.80
2023-03-15T10:46:31.185Z,1.00
2023-03-15T10:49:00.757Z,0.80
2023-03-15T10:51:33.678Z,1.60
2023-03-15T10:54:16.725Z,0.98
2023-03-15T10:57:01.115Z,1.95
2023-03-15T10:59:30.992Z,1.23
2023-03-15T11:02:14.004Z,1.08
2023-03-15T11:04:59.884Z,1.17
2023-03-15T11:07:27.664Z,1.40
2023-03-15T11:09:59.640Z,1.00
2023-03-15T11:12:31.823Z,0.68
2023-03-15T11:15:14.154Z,0.80
2023-03-15T11:20:54.662Z,0.80
2023-03-15T11:23:27.318Z,0.50
2023-03-15T11:25:55.453Z,1.00
2023-03-15T11:28:28.983Z,0.75
2023-03-15T11:31:00.876Z,0.60
2023-03-15T11:33:51.715Z,0.70
2023-03-15T11:36:27.038Z,0.93
2023-03-15T11:38:55.444Z,1.08
2023-03-15T11:41:58.179Z,1.08
2023-03-15T11:44:36.911Z,1.00
2023-03-15T11:47:14.591Z,1.00
2023-03-15T11:49:53.779Z,1.65
2023-03-15T11:52:29.364Z,1.00
2023-03-15T11:55:00.326Z,1.10
2023-03-15T11:57:39.324Z,1.25
2023-03-15T12:00:27.092Z,1.13
2023-03-15T12:02:57.859Z,1.35
2023-03-15T12:05:45.824Z,1.20
2023-03-15T12:08:18.962Z,1.08
2023-03-15T12:10:49.687Z,0.88
2023-03-15T12:13:30.250Z,0.80
2023-03-15T12:15:58.635Z,1.23
2023-03-15T12:18:32.778Z,0.73
2023-03-15T12:21:20.670Z,0.52
2023-03-15T12:24:01.862Z,0.80
2023-03-15T12:26:37.588Z,0.90
2023-03-15T12:29:22.134Z,0.90
2023-03-15T12:32:05.088Z,0.70
2023-03-15T12:34:45.530Z,0.85
2023-03-15T12:37:39.115Z,0.90
2023-03-15T12:40:15.701Z,1.05
2023-03-15T12:42:42.826Z,1.20
2023-03-15T12:45:16.510Z,0.90
2023-03-15T12:47:53.127Z,1.10
2023-03-15T12:50:38.982Z,1.25
2023-03-15T12:53:19.796Z,1.08
2023-03-15T12:55:47.673Z,1.45
2023-03-15T12:58:18.702Z,0.90
2023-03-15T13:00:46.373Z,0.80
2023-03-15T13:03:20.369Z,0.88
2023-03-15T13:06:04.645Z,1.08
2023-03-15T13:08:59.935Z,0.88
2023-03-15T13:11:40.577Z,0.93
2023-03-15T13:14:26.359Z,1.40
2023-03-15T13:17:27.249Z,0.40
2023-03-15T13:20:25.049Z,1.23
2023-03-15T13:23:01.833Z,0.85
2023-03-15T13:25:54.086Z,0.77
2023-03-15T13:28:26.348Z,0.63
2023-03-15T13:30:55.776Z,1.02
2023-03-15T13:33:30.299Z,0.98
2023-03-15T13:36:03.842Z,0.98
2023-03-15T13:38:40.426Z,0.70
2023-03-15T13:41:16.536Z,0.60
2023-03-15T13:43:45.863Z,0.55
2023-03-15T13:46:13.178Z,0.90
2023-03-15T13:48:42.892Z,1.10
2023-03-15T13:51:31.679Z,0.70
2023-03-15T13:54:25.327Z,0.80
2023-03-15T13:57:22.187Z,0.98
2023-03-15T14:00:02.012Z,0.90
2023-03-15T14:02:47.175Z,0.80
2023-03-15T14:05:29.193Z,0.65
2023-03-15T14:08:03.005Z,0.63
2023-03-15T14:10:40.418Z,0.77
2023-03-15T14:13:27.801Z,1.00
2023-03-15T14:16:04.502Z,0.70
2023-03-15T14:18:39.791Z,0.50
2023-03-15T14:21:16.482Z,0.68
2023-03-15T14:23:46.601Z,0.50
2023-03-15T14:26:22.774Z,0.80
2023-03-15T14:29:19.050Z,0.80
2023-03-15T14:31:51.141Z,0.75
2023-03-15T14:34:34.900Z,0.47
2023-03-15T14:37:07.231Z,1.17
2023-03-15T14:42:01.402Z,0.73
2023-03-15T14:44:28.555Z,0.60
2023-03-15T14:46:55.780Z,0.60
2023-03-15T14:49:25.841Z,0.60
2023-03-15T14:51:57.957Z,0.65
2023-03-15T14:56:53.212Z,0.55
2023-03-15T14:59:20.462Z,1.42
2023-03-15T15:01:51.808Z,0.30
2023-03-15T15:04:20.014Z,0.57
2023-03-15T15:06:52.745Z,0.70
2023-03-15T15:09:25.244Z,0.88
2023-03-15T15:11:53.607Z,0.55
2023-03-15T15:14:22.088Z,0.73
2023-03-15T15:16:49.679Z,0.60
2023-03-15T15:19:17.029Z,0.77
2023-03-15T15:21:44.585Z,0.70
2023-03-15T15:24:24.964Z,0.60
2023-03-15T15:26:52.301Z,0.63
2023-03-15T15:29:19.577Z,0.80
2023-03-15T15:31:47.678Z,0.50
2023-03-15T15:34:14.874Z,0.65
2023-03-15T15:36:46.151Z,0.75
2023-03-15T15:39:23.659Z,0.73
2023-03-15T15:41:50.939Z,0.68
2023-03-15T15:44:21.541Z,0.57
2023-03-15T15:46:48.817Z,1.30
2023-03-15T15:49:16.732Z,2.95
2023-03-15T15:51:49.885Z,3.20
2023-03-15T15:54:21.904Z,1.77
2023-03-15T15:56:53.019Z,1.60
2023-03-15T15:59:25.834Z,1.90
2023-03-15T16:02:00.705Z,1.23
2023-03-15T16:04:29.808Z,1.20
2023-03-15T16:07:02.305Z,1.33
2023-03-15T16:09:35.239Z,1.20
2023-03-15T16:12:03.004Z,0.70
2023-03-15T16:14:30.235Z,0.90
2023-03-15T16:16:57.434Z,0.82
2023-03-15T16:19:24.586Z,1.35
2023-03-15T16:21:54.514Z,1.15
2023-03-15T16:24:30.176Z,1.30
2023-03-15T16:27:04.641Z,1.50
2023-03-15T16:29:43.105Z,1.10
2023-03-15T16:32:29.810Z,1.05
2023-03-15T16:35:06.720Z,1.00
2023-03-15T16:37:34.758Z,1.13
2023-03-15T16:40:02.290Z,1.50
2023-03-15T16:42:29.956Z,1.17
2023-03-15T16:44:57.210Z,0.80
2023-03-15T16:47:24.364Z,1.13
2023-03-15T16:49:51.728Z,1.23
2023-03-15T16:52:18.909Z,1.13
2023-03-15T16:54:47.683Z,0.77
2023-03-15T16:57:23.387Z,1.27
2023-03-15T16:59:51.438Z,1.10
2023-03-15T17:02:27.542Z,0.88
2023-03-15T17:04:55.237Z,1.75
2023-03-15T17:07:28.369Z,1.13
2023-03-15T17:09:55.811Z,1.27
2023-03-15T17:12:28.461Z,1.10
2023-03-15T17:14:59.838Z,1.48
2023-03-15T17:17:28.493Z,1.60
2023-03-15T17:19:55.790Z,1.50
2023-03-15T17:22:23.352Z,1.30
2023-03-15T17:24:50.797Z,1.08
2023-03-15T17:27:26.732Z,1.40
2023-03-15T17:29:53.869Z,1.00
2023-03-15T17:32:21.125Z,1.27
2023-03-15T17:34:48.501Z,1.20
2023-03-15T17:37:17.409Z,1.00
2023-03-15T17:39:45.399Z,1.05
2023-03-15T17:42:14.480Z,1.35
2023-03-15T17:44:42.664Z,1.13
2023-03-15T17:47:11.491Z,1.20
2023-03-15T17:49:38.991Z,1.05
2023-03-15T17:52:14.309Z,1.15
2023-03-15T17:54:41.626Z,1.70
2023-03-15T17:57:12.426Z,0.68
2023-03-15T17:59:40.935Z,0.73
2023-03-15T18:02:16.007Z,0.57
2023-03-15T18:04:43.416Z,0.85
2023-03-15T18:07:10.690Z,1.35
2023-03-15T18:09:37.852Z,0.70
2023-03-15T18:12:05.213Z,1.00
2023-03-15T18:14:37.151Z,1.10
2023-03-15T18:17:04.527Z,1.55
2023-03-15T18:19:31.766Z,1.20
2023-03-15T18:21:59.015Z,1.02
2023-03-15T18:24:26.147Z,1.30
2023-03-15T18:26:53.331Z,1.00
2023-03-15T18:29:20.974Z,1.83
2023-03-15T18:31:48.329Z,1.25
2023-03-15T18:34:17.218Z,1.20
2023-03-15T18:36:44.516Z,1.58
2023-03-15T18:39:12.134Z,1.38
2023-03-15T18:41:39.759Z,1.73
2023-03-15T18:44:06.963Z,1.10
2023-03-15T18:46:34.927Z,1.20
2023-03-15T18:49:02.641Z,1.02
2023-03-15T18:51:29.919Z,1.30
2023-03-15T18:53:57.242Z,1.48
2023-03-15T18:56:27.764Z,1.10
2023-03-15T18:58:55.146Z,2.22
2023-03-15T19:01:24.502Z,1.38
2023-03-15T19:03:54.160Z,1.73
2023-03-15T19:06:23.376Z,1.20
2023-03-15T19:08:53.666Z,0.93
2023-03-15T19:11:24.022Z,1.38
2023-03-15T19:13:51.544Z,1.15
2023-03-15T19:16:22.109Z,1.20
2023-03-15T19:18:51.685Z,1.50
2023-03-15T19:21:20.248Z,2.25
2023-03-15T19:23:47.846Z,1.33
2023-03-15T19:26:15.015Z,2.17
2023-03-15T19:28:42.381Z,1.65
2023-03-15T19:31:10.016Z,1.52
2023-03-15T19:33:38.332Z,1.48
2023-03-15T19:36:08.677Z,1.88
2023-03-15T19:38:36.211Z,1.10
2023-03-15T19:41:09.374Z,1.35
2023-03-15T19:43:38.390Z,1.35
2023-03-15T19:46:08.140Z,1.98
2023-03-15T19:48:36.346Z,1.83
2023-03-15T19:51:04.638Z,4.95
2023-03-15T19:53:32.450Z,2.55
2023-03-15T19:56:04.034Z,1.90
2023-03-15T19:58:31.299Z,1.95
2023-03-15T20:00:58.689Z,2.53
2023-03-15T20:03:25.905Z,1.63
2023-03-15T20:05:53.515Z,1.85
2023-03-15T20:08:20.953Z,1.30
2023-03-15T20:10:48.731Z,1.10
2023-03-15T20:13:16.309Z,1.67
2023-03-15T20:15:44.010Z,1.73
2023-03-15T20:18:14.382Z,1.23
2023-03-15T20:20:41.863Z,1.52
2023-03-15T20:23:09.194Z,1.23
2023-03-15T20:25:36.518Z,1.38
2023-03-15T20:28:04.531Z,1.35
2023-03-15T20:30:32.466Z,1.05
2023-03-15T20:33:00.430Z,1.60
2023-03-15T20:35:27.986Z,1.20
2023-03-15T20:37:59.170Z,1.58
2023-03-15T20:40:26.452Z,1.20
2023-03-15T20:42:53.927Z,1.00
2023-03-15T20:45:21.297Z,1.58
2023-03-15T20:47:48.966Z,5.93
2023-03-15T20:50:16.586Z,1.80
2023-03-15T20:52:44.206Z,1.88
2023-03-15T20:55:15.224Z,1.70
2023-03-15T20:57:43.188Z,1.50
2023-03-15T21:00:13.129Z,1.85
2023-03-15T21:02:40.754Z,1.60
2023-03-15T21:05:09.769Z,2.13
2023-03-15T21:07:38.779Z,1.52
2023-03-15T21:10:06.650Z,1.40
2023-03-15T21:12:35.373Z,1.80
2023-03-15T21:15:03.636Z,1.55
2023-03-15T21:17:31.011Z,1.65
2023-03-15T21:19:58.668Z,2.25
2023-03-15T21:22:26.254Z,1.98
2023-03-15T21:24:56.217Z,4.15
2023-03-15T21:27:26.728Z,2.67
2023-03-15T21:29:54.615Z,5.05
2023-03-15T21:32:22.207Z,2.40
2023-03-15T21:34:49.584Z,2.40
2023-03-15T21:37:18.795Z,1.98
2023-03-15T21:39:46.351Z,1.70
2023-03-15T21:42:13.847Z,1.60
2023-03-15T21:44:41.786Z,1.60
2023-03-15T21:47:09.174Z,1.48
2023-03-15T21:49:36.410Z,1.45
2023-03-15T21:52:03.587Z,1.80
2023-03-15T21:54:30.781Z,1.90
2023-03-15T21:56:58.178Z,1.92
2023-03-15T21:59:27.997Z,2.22
2023-03-15T22:01:56.431Z,1.95
2023-03-15T22:04:27.515Z,2.25
2023-03-15T22:06:54.840Z,1.88
2023-03-15T22:09:23.438Z,2.00
2023-03-15T22:11:50.676Z,1.92
2023-03-15T22:14:18.594Z,2.40
2023-03-15T22:16:45.917Z,1.65
2023-03-15T22:19:14.662Z,2.47
2023-03-15T22:21:42.428Z,3.20
2023-03-15T22:24:10.741Z,2.28
2023-03-15T22:26:37.872Z,1.48
2023-03-15T22:29:04.956Z,2.33
2023-03-15T22:31:32.153Z,1.95
2023-03-15T22:33:59.357Z,2.08
2023-03-15T22:36:26.655Z,2.03
2023-03-15T22:38:54.047Z,1.40
2023-03-15T22:41:21.407Z,2.20
2023-03-15T22:43:48.594Z,2.00
2023-03-15T22:46:15.775Z,1.83
2023-03-15T22:48:43.151Z,1.70
2023-03-15T22:51:14.735Z,1.63
2023-03-15T22:53:42.388Z,2.03
2023-03-15T22:56:09.710Z,1.80
2023-03-15T22:58:38.079Z,2.45
2023-03-15T23:01:05.435Z,2.00
2023-03-15T23:03:32.752Z,2.13
2023-03-15T23:06:00.475Z,1.70
2023-03-15T23:08:27.756Z,2.78
2023-03-15T23:10:57.786Z,1.75
2023-03-15T23:13:24.989Z,1.70
2023-03-15T23:15:52.195Z,2.03
2023-03-15T23:18:22.221Z,1.88
2023-03-15T23:20:49.636Z,2.17
2023-03-15T23:23:16.851Z,2.38
2023-03-15T23:25:45.925Z,2.42
2023-03-15T23:28:13.959Z,1.48
2023-03-15T23:30:41.290Z,1.88
2023-03-15T23:33:08.762Z,2.40
2023-03-15T23:35:36.176Z,2.53
2023-03-15T23:38:03.385Z,1.70
2023-03-15T23:40:30.562Z,2.20
2023-03-15T23:43:03.698Z,1.48
2023-03-15T23:45:30.886Z,2.13
2023-03-15T23:47:58.300Z,1.88
2023-03-15T23:50:26.618Z,2.15
2023-03-15T23:52:55.777Z,1.58
2023-03-15T23:55:23.701Z,2.15
2023-03-15T23:57:51.416Z,2.00
